Time;durP1;ratioP1;P1;durP2;ratioP2;P2;SDS_P1;SDS_P2;PMS_P1;PMS_P2;Temp;Humidity;BMP_temperature;BMP_pressure;BME280_temperature;BME280_humidity;BME280_pressure;Samples;Min_cycle;Max_cycle;Signal;HPM_P1;HPM_P2
2022/07/29 00:01:02;;;;;;;1999.90;999.90;;;;;;;16.57;71.59;99048.53;10023871;23;20027;-78
2022/07/29 00:05:05;;;;;;;1999.90;999.90;;;;;;;16.45;71.84;99040.22;10030526;23;20057;-78
2022/07/29 00:09:06;;;;;;;1999.90;999.90;;;;;;;16.35;72.10;99037.06;10030255;23;20018;-78
2022/07/29 00:13:08;;;;;;;1999.90;999.90;;;;;;;16.32;72.43;99038.00;10027368;23;20023;-78
2022/07/29 00:17:09;;;;;;;1999.90;999.90;;;;;;;16.29;72.72;99045.97;9999670;23;20257;-78
2022/07/29 00:21:11;;;;;;;1999.90;999.90;;;;;;;16.30;72.69;99041.59;10029988;23;20598;-78
2022/07/29 00:25:13;;;;;;;1999.90;999.90;;;;;;;16.28;73.06;99036.41;10031181;23;20061;-78
2022/07/29 00:29:15;;;;;;;1999.90;999.90;;;;;;;16.26;73.33;99040.84;10006270;23;20269;-79
2022/07/29 00:33:34;;;;;;;1999.90;999.90;;;;;;;16.28;73.15;99044.25;10026554;23;20042;-78
2022/07/29 00:37:36;;;;;;;1999.90;999.90;;;;;;;16.24;73.22;99039.19;10006442;23;20335;-78
2022/07/29 00:41:37;;;;;;;1999.90;999.90;;;;;;;16.20;73.09;99034.97;10006287;23;20027;-78
2022/07/29 00:45:40;;;;;;;1999.90;999.90;;;;;;;16.08;73.20;99030.09;10005467;23;20277;-78
2022/07/29 00:49:41;;;;;;;;;;;;;;;16.04;73.32;99042.44;10007815;23;20014;-77
2022/07/29 00:53:43;;;;;;;1999.90;999.90;;;;;;;16.05;73.23;99041.53;10006516;23;19941;-77
2022/07/29 00:57:46;;;;;;;1999.90;999.90;;;;;;;16.05;73.50;99033.69;10005926;23;20026;-76
2022/07/29 01:01:47;;;;;;;;;;;;;;;15.87;73.31;99042.97;10024587;23;20059;-77
2022/07/29 01:05:50;;;;;;;1999.90;999.90;;;;;;;15.87;73.51;99044.75;10029178;23;19922;-77
2022/07/29 01:09:53;;;;;;;1999.90;999.90;;;;;;;15.82;74.36;99039.66;10030807;23;20402;-76
2022/07/29 01:13:55;;;;;;;;;;;;;;;15.81;74.45;99044.94;10005512;23;20054;-77
2022/07/29 01:18:14;;;;;;;1999.90;999.90;;;;;;;15.74;74.53;99038.16;10026421;23;19956;-77
2022/07/29 01:22:45;;;;;;;1999.90;999.90;;;;;;;15.68;74.67;99021.75;10005946;23;20106;-77
2022/07/29 01:26:47;;;;;;;1999.90;999.90;;;;;;;15.64;74.76;99027.16;10006862;23;20402;-77
2022/07/29 01:30:52;;;;;;;1999.90;999.90;;;;;;;15.59;74.84;99024.66;10028134;23;20030;-77
2022/07/29 01:35:18;;;;;;;1999.90;999.90;;;;;;;15.45;75.24;99031.19;10049312;23;20422;-77
2022/07/29 01:39:29;;;;;;;1999.90;999.90;;;;;;;15.37;75.83;99026.16;10030594;23;20014;-78
2022/07/29 01:43:42;;;;;;;1999.90;999.90;;;;;;;15.27;76.12;99024.75;10030135;23;20037;-77
2022/07/29 01:48:25;;;;;;;1999.90;999.90;;;;;;;15.18;76.39;99025.84;10005367;23;20437;-77
2022/07/29 01:52:47;;;;;;;1999.90;999.90;;;;;;;15.20;76.27;99024.03;10010270;23;20061;-76
2022/07/29 01:56:51;;;;;;;1999.90;999.90;;;;;;;15.15;75.95;99019.84;10029224;23;20788;-76
2022/07/29 02:00:54;;;;;;;1999.90;999.90;;;;;;;15.12;75.53;99015.56;10001369;23;20026;-76
2022/07/29 02:04:57;;;;;;;1999.90;999.90;;;;;;;15.04;75.59;99020.16;10033903;23;20031;-77
2022/07/29 02:09:00;;;;;;;1999.90;999.90;;;;;;;14.96;75.83;99017.78;10035756;23;20058;-77
2022/07/29 02:13:03;;;;;;;1999.90;999.90;;;;;;;14.88;75.69;99027.56;10034448;23;20453;-77
2022/07/29 02:17:05;;;;;;;1999.90;999.90;;;;;;;14.89;75.92;99031.03;10005931;23;20402;-77
2022/07/29 02:21:07;;;;;;;;;;;;;;;14.92;76.49;99030.97;10034512;23;20061;-77
2022/07/29 02:25:17;;;;;;;1999.90;999.90;;;;;;;14.87;77.09;99028.47;10034309;23;19953;-76
2022/07/29 02:29:25;;;;;;;1999.90;999.90;;;;;;;14.84;77.12;99028.56;10051488;23;20034;-77
2022/07/29 02:33:30;;;;;;;1999.90;999.90;;;;;;;14.72;77.51;99024.53;10030619;23;20041;-77
2022/07/29 02:37:32;;;;;;;1999.90;999.90;;;;;;;14.72;77.36;99031.50;10024902;23;20034;-77
2022/07/29 02:41:41;;;;;;;1999.90;999.90;;;;;;;14.69;77.45;99036.81;10033759;23;20474;-77
2022/07/29 02:45:43;;;;;;;1999.90;999.90;;;;;;;14.60;77.59;99034.44;10004917;23;20167;-76
2022/07/29 02:50:01;;;;;;;;;;;;;;;14.61;78.34;99034.41;10035933;23;20042;-77
2022/07/29 02:54:07;;;;;;;1999.90;999.90;;;;;;;14.58;78.90;99026.66;10034563;23;19956;-77
2022/07/29 02:58:30;;;;;;;1999.90;999.90;;;;;;;14.57;78.78;99038.00;10009911;23;20029;-77
2022/07/29 03:02:40;;;;;;;;;;;;;;;14.55;78.65;99034.59;9980643;23;20031;-76
2022/07/29 03:06:43;;;;;;;1999.90;999.90;;;;;;;14.49;78.52;99035.56;9958561;23;20645;-77
2022/07/29 03:10:46;;;;;;;1999.90;999.90;;;;;;;14.43;78.48;99054.03;9980492;23;20742;-76
2022/07/29 03:14:48;;;;;;;1999.90;999.90;;;;;;;14.26;78.63;99053.56;9982718;23;20061;-77
2022/07/29 03:18:51;;;;;;;1999.90;999.90;;;;;;;14.27;78.80;99047.44;10020538;23;20023;-77
2022/07/29 03:22:52;;;;;;;1999.90;999.90;;;;;;;14.30;79.51;99046.50;10029246;23;20078;-77
2022/07/29 03:26:56;;;;;;;1999.90;999.90;;;;;;;14.25;79.68;99054.47;10029661;23;20419;-76
2022/07/29 03:30:57;;;;;;;1999.90;999.90;;;;;;;14.24;79.07;99052.75;10000278;23;20031;-76
2022/07/29 03:34:59;;;;;;;1999.90;999.90;;;;;;;14.20;79.35;99053.72;10004092;23;20037;-76
2022/07/29 03:39:02;;;;;;;1999.90;999.90;;;;;;;14.10;79.72;99054.84;10003984;23;20019;-77
2022/07/29 03:43:05;;;;;;;1999.90;999.90;;;;;;;14.07;79.90;99049.69;10003199;23;20265;-76
2022/07/29 03:47:09;;;;;;;1999.90;999.90;;;;;;;13.98;80.05;99055.97;9978238;23;20360;-77
2022/07/29 03:51:10;;;;;;;1999.90;999.90;;;;;;;13.96;80.62;99056.91;9996881;23;20229;-77
2022/07/29 03:55:13;;;;;;;1999.90;999.90;;;;;;;13.99;80.88;99049.84;9981798;23;20043;-76
2022/07/29 03:59:17;;;;;;;1999.90;999.90;;;;;;;13.96;80.50;99049.94;9956161;23;20062;-76
2022/07/29 04:03:19;;;;;;;1999.90;999.90;;;;;;;13.94;80.86;99056.09;9927740;23;20035;-76
2022/07/29 04:07:20;;;;;;;1999.90;999.90;;;;;;;13.81;80.68;99053.75;9981050;23;20865;-76
2022/07/29 04:11:22;;;;;;;1999.90;999.90;;;;;;;13.66;81.46;99061.09;9982003;23;20319;-76
2022/07/29 04:15:24;;;;;;;1999.90;999.90;;;;;;;13.59;81.88;99063.81;9977545;23;20034;-76
2022/07/29 04:19:25;;;;;;;1999.90;999.90;;;;;;;13.61;82.04;99066.38;10027184;23;20030;-76
2022/07/29 04:23:32;;;;;;;1999.90;999.90;;;;;;;13.69;82.24;99074.91;10045503;23;20050;-76
2022/07/29 04:27:33;;;;;;;1999.90;999.90;;;;;;;13.82;81.86;99071.16;10028986;23;20027;-77
2022/07/29 04:31:35;;;;;;;1999.90;999.90;;;;;;;13.90;81.86;99086.63;9999424;23;20027;-77
2022/07/29 04:35:37;;;;;;;1999.90;999.90;;;;;;;13.89;81.66;99079.69;10028002;23;20086;-76
2022/07/29 04:39:50;;;;;;;1999.90;999.90;;;;;;;14.01;81.07;99070.72;10002612;23;20026;-76
2022/07/29 04:43:52;;;;;;;1999.90;999.90;;;;;;;14.30;80.81;99088.28;10029094;23;20113;-77
2022/07/29 04:47:54;;;;;;;1999.90;999.90;;;;;;;14.59;80.44;99085.84;10028441;23;20323;-77
2022/07/29 04:51:56;;;;;;;;;;;;;;;14.87;80.64;99085.13;10004868;23;20034;-77
2022/07/29 04:55:57;;;;;;;1999.90;999.90;;;;;;;15.17;79.23;99081.69;10027177;23;19957;-77
2022/07/29 04:59:59;;;;;;;1999.90;999.90;;;;;;;15.42;77.88;99074.84;10028614;23;20019;-77
2022/07/29 05:04:00;;;;;;;1999.90;999.90;;;;;;;15.66;77.16;99083.78;9999145;23;20062;-77
2022/07/29 05:08:03;;;;;;;;;;;;;;;15.77;75.49;99098.28;10045225;23;20034;-77
2022/07/29 05:12:05;;;;;;;1999.90;999.90;;;;;;;15.75;75.14;99090.47;10003692;23;19964;-76
2022/07/29 05:16:08;;;;;;;1999.90;999.90;;;;;;;15.78;74.42;99094.75;10024468;23;20043;-76
2022/07/29 05:20:10;;;;;;;1999.90;999.90;;;;;;;15.90;74.81;99097.88;10004313;23;20019;-77
2022/07/29 05:24:11;;;;;;;1999.90;999.90;;;;;;;16.07;74.17;99097.34;10003753;23;20061;-76
2022/07/29 05:28:13;;;;;;;1999.90;999.90;;;;;;;16.22;73.67;99094.25;10004530;23;20661;-77
2022/07/29 05:32:15;;;;;;;1999.90;999.90;;;;;;;16.31;74.12;99096.56;10001511;23;20026;-77
2022/07/29 05:36:17;;;;;;;1999.90;999.90;;;;;;;16.41;74.32;99098.91;10004971;23;20055;-77
2022/07/29 05:40:18;;;;;;;1999.90;999.90;;;;;;;16.43;74.14;99104.94;10032215;23;20019;-77
2022/07/29 05:44:20;;;;;;;1999.90;999.90;;;;;;;16.45;73.91;99106.59;10047919;23;20426;-77
2022/07/29 05:48:25;;;;;;;1999.90;999.90;;;;;;;16.50;72.66;99109.06;10032842;23;20026;-77
2022/07/29 05:52:27;;;;;;;1999.90;999.90;;;;;;;16.66;72.94;99104.16;10006270;23;20033;-77
2022/07/29 05:56:28;;;;;;;1999.90;999.90;;;;;;;17.10;72.07;99110.56;10049250;23;20033;-77
2022/07/29 06:00:30;;;;;;;1999.90;999.90;;;;;;;17.72;70.35;99117.91;10030252;23;20022;-77
2022/07/29 06:04:33;;;;;;;1999.90;999.90;;;;;;;18.38;67.66;99109.16;10034344;23;20050;-77
2022/07/29 06:08:36;;;;;;;1999.90;999.90;;;;;;;19.02;65.06;99116.16;10025638;23;20296;-77
2022/07/29 06:12:37;;;;;;;1999.90;999.90;;;;;;;19.14;63.62;99128.78;10033386;23;20042;-78
2022/07/29 06:16:39;;;;;;;1999.90;999.90;;;;;;;19.77;62.26;99131.31;10040935;23;20431;-78
2022/07/29 06:20:41;;;;;;;1999.90;999.90;;;;;;;20.40;60.73;99124.75;10034312;23;20018;-78
2022/07/29 06:24:43;;;;;;;1999.90;999.90;;;;;;;20.99;59.03;99131.50;10033903;23;20023;-77
2022/07/29 06:28:45;;;;;;;1999.90;999.90;;;;;;;20.75;58.33;99130.09;10009893;23;20022;-77
2022/07/29 06:32:47;;;;;;;1999.90;999.90;;;;;;;21.42;56.78;99132.81;10003617;23;20023;-76
2022/07/29 06:36:49;;;;;;;1999.90;999.90;;;;;;;22.25;54.84;99129.16;10008517;23;20033;-77
2022/07/29 06:41:00;;;;;;;1999.90;999.90;;;;;;;22.74;52.89;99136.94;10008650;23;20023;-78
2022/07/29 06:45:01;;;;;;;1999.90;999.90;;;;;;;22.73;52.25;99124.66;10033349;23;20023;-77
2022/07/29 06:49:10;;;;;;;1999.90;999.90;;;;;;;22.30;53.24;99126.28;10032240;23;20118;-78
2022/07/29 06:53:11;;;;;;;1999.90;999.90;;;;;;;22.89;51.07;99130.78;10033323;23;20026;-78
2022/07/29 06:57:12;;;;;;;1999.90;999.90;;;;;;;23.16;49.66;99136.25;10034814;23;20033;-78
2022/07/29 07:01:14;;;;;;;1999.90;999.90;;;;;;;23.23;48.40;99134.09;10004853;23;20433;-77
2022/07/29 07:05:16;;;;;;;1999.90;999.90;;;;;;;23.58;48.85;99141.72;10008510;23;20030;-79
2022/07/29 07:09:17;;;;;;;1999.90;999.90;;;;;;;24.06;48.67;99137.81;10008629;23;20023;-79
2022/07/29 07:13:19;;;;;;;1999.90;999.90;;;;;;;24.41;47.38;99139.03;10007848;23;20045;-80
2022/07/29 07:17:20;;;;;;;1999.90;999.90;;;;;;;24.79;46.18;99133.03;10012305;23;20037;-79
2022/07/29 07:21:22;;;;;;;;;;;;;;;25.14;44.85;99138.66;10008654;23;20426;-79
2022/07/29 07:25:23;;;;;;;1999.90;999.90;;;;;;;25.42;43.79;99129.63;10034062;23;19921;-78
2022/07/29 07:29:25;;;;;;;;;;;;;;;25.72;43.22;99137.28;10010001;23;20030;-79
2022/07/29 07:33:26;;;;;;;1999.90;999.90;;;;;;;25.97;42.16;99135.53;10004607;23;19928;-79
2022/07/29 07:37:28;;;;;;;;;;;;;;;26.14;41.09;99138.69;10009400;23;20019;-78
2022/07/29 07:41:29;;;;;;;1999.90;999.90;;;;;;;26.40;40.64;99139.50;10009147;23;19929;-79
2022/07/29 07:45:33;;;;;;;1999.90;999.90;;;;;;;26.64;40.29;99131.50;10003979;23;20061;-77
2022/07/29 07:49:35;;;;;;;1999.90;999.90;;;;;;;26.85;39.50;99131.69;10032502;23;20066;-79
2022/07/29 07:53:36;;;;;;;;;;;;;;;27.11;39.52;99135.09;10032334;23;20022;-77
2022/07/29 07:57:38;;;;;;;1999.90;999.90;;;;;;;27.03;39.23;99134.81;10006277;23;19937;-77
2022/07/29 08:01:39;;;;;;;1999.90;999.90;;;;;;;26.54;38.91;99134.94;10027784;23;20038;-77
2022/07/29 08:05:56;;;;;;;1999.90;999.90;;;;;;;26.19;39.97;99139.19;10005703;23;20022;-77
2022/07/29 08:09:58;;;;;;;1999.90;999.90;;;;;;;26.62;40.23;99144.09;10006158;23;20054;-77
2022/07/29 08:14:01;;;;;;;1999.90;999.90;;;;;;;27.03;38.69;99148.13;10031424;23;20336;-77
2022/07/29 08:18:02;;;;;;;1999.90;999.90;;;;;;;27.55;37.83;99152.97;10001647;23;20366;-77
2022/07/29 08:22:09;;;;;;;1999.90;999.90;;;;;;;27.43;37.14;99143.25;10007409;23;20026;-77
2022/07/29 08:26:12;;;;;;;1999.90;999.90;;;;;;;27.86;37.13;99153.28;10003018;23;20398;-77
2022/07/29 08:30:14;;;;;;;1999.90;999.90;;;;;;;27.82;35.91;99146.44;10027381;23;20047;-77
2022/07/29 08:34:16;;;;;;;1999.90;999.90;;;;;;;27.74;36.54;99147.06;10028024;23;20431;-77
2022/07/29 08:38:17;;;;;;;1999.90;999.90;;;;;;;27.77;36.57;99145.97;10005405;23;20224;-77
2022/07/29 08:42:19;;;;;;;;;;;;;;;27.91;35.99;99149.25;10031650;23;20018;-77
2022/07/29 08:46:23;;;;;;;1999.90;999.90;;;;;;;28.02;35.46;99142.22;10000755;23;19922;-77
2022/07/29 08:50:24;;;;;;;1999.90;999.90;;;;;;;28.32;35.21;99139.75;10030965;23;20015;-77
2022/07/29 08:54:27;;;;;;;1999.90;999.90;;;;;;;28.58;34.39;99149.16;10005049;23;20114;-77
2022/07/29 08:58:33;;;;;;;1999.90;999.90;;;;;;;28.55;33.92;99149.41;10005717;23;20018;-77
2022/07/29 09:02:46;;;;;;;1999.90;999.90;;;;;;;28.64;33.26;99139.78;10002190;23;20035;-77
2022/07/29 09:06:51;;;;;;;1999.90;999.90;;;;;;;28.68;32.83;99141.22;10047264;23;20387;-77
2022/07/29 09:10:53;;;;;;;1999.90;999.90;;;;;;;28.79;33.41;99138.50;10008367;23;20018;-77
2022/07/29 09:14:54;;;;;;;1999.90;999.90;;;;;;;28.94;31.74;99143.59;10033210;23;20030;-77
2022/07/29 09:18:56;;;;;;;1999.90;999.90;;;;;;;29.00;31.04;99145.72;10029009;23;20038;-77
2022/07/29 09:23:08;;;;;;;1999.90;999.90;;;;;;;28.92;31.66;99138.38;10031884;23;20065;-78
2022/07/29 09:27:26;;;;;;;1999.90;999.90;;;;;;;29.01;31.13;99142.06;9984464;23;20065;-77
2022/07/29 09:31:37;;;;;;;1999.90;999.90;;;;;;;29.13;32.04;99141.91;10004416;23;20026;-77
2022/07/29 09:35:39;;;;;;;1999.90;999.90;;;;;;;29.22;30.58;99139.41;10001185;23;20031;-77
2022/07/29 09:39:46;;;;;;;1999.90;999.90;;;;;;;29.23;30.93;99131.25;9984049;23;20019;-78
2022/07/29 09:43:55;;;;;;;1999.90;999.90;;;;;;;29.48;30.48;99130.03;10000474;23;20019;-78
2022/07/29 09:48:00;;;;;;;1999.90;999.90;;;;;;;29.67;29.93;99131.94;9981219;23;20927;-78
2022/07/29 09:52:07;;;;;;;1999.90;999.90;;;;;;;29.83;29.55;99128.78;9961105;23;20027;-78
2022/07/29 09:56:10;;;;;;;1999.90;999.90;;;;;;;29.94;29.16;99123.31;9983746;23;20030;-77
2022/07/29 10:00:14;;;;;;;1999.90;999.90;;;;;;;30.03;28.13;99134.06;9957658;23;20023;-77
2022/07/29 10:04:16;;;;;;;1999.90;999.90;;;;;;;29.90;28.77;99127.25;9983429;23;20099;-78
2022/07/29 10:08:25;;;;;;;1999.90;999.90;;;;;;;29.93;29.34;99125.13;9985216;23;20047;-78
2022/07/29 10:12:27;;;;;;;1999.90;999.90;;;;;;;30.14;29.72;99125.09;9982338;23;20026;-79
2022/07/29 10:16:32;;;;;;;1999.90;999.90;;;;;;;30.21;29.50;99112.00;9977702;23;20039;-77
2022/07/29 10:20:35;;;;;;;1999.90;999.90;;;;;;;29.88;27.99;99116.69;9959118;23;20447;-77
2022/07/29 10:24:38;;;;;;;1999.90;999.90;;;;;;;29.54;29.65;99118.78;9984520;23;20034;-78
2022/07/29 10:28:39;;;;;;;1999.90;999.90;;;;;;;29.57;29.99;99120.34;9982894;23;20034;-77
2022/07/29 10:33:00;;;;;;;1999.90;999.90;;;;;;;29.66;29.89;99115.06;9930538;23;20116;-77
2022/07/29 10:37:22;;;;;;;1999.90;999.90;;;;;;;29.79;29.21;99117.47;9935198;23;20020;-77
2022/07/29 10:41:47;;;;;;;1999.90;999.90;;;;;;;29.87;28.25;99116.81;9910559;23;20326;-77
2022/07/29 10:45:54;;;;;;;1999.90;999.90;;;;;;;29.62;25.39;99115.44;9936435;23;20031;-76
2022/07/29 10:50:00;;;;;;;1999.90;999.90;;;;;;;29.29;26.30;99120.03;9958768;23;20027;-77
2022/07/29 10:54:05;;;;;;;1999.90;999.90;;;;;;;29.38;27.58;99121.06;9982042;23;20065;-78
2022/07/29 10:58:19;;;;;;;1999.90;999.90;;;;;;;29.39;27.89;99115.56;10007476;23;20106;-78
2022/07/29 11:02:36;;;;;;;1999.90;999.90;;;;;;;29.03;26.71;99118.72;9987843;23;20042;-78
2022/07/29 11:06:58;;;;;;;1999.90;999.90;;;;;;;28.75;27.23;99110.34;9960811;23;20054;-78
2022/07/29 11:11:19;;;;;;;1999.90;999.90;;;;;;;28.84;27.59;99112.22;9984921;23;20030;-78
2022/07/29 11:15:23;;;;;;;1999.90;999.90;;;;;;;29.19;28.96;99105.75;9954574;23;20086;-78
2022/07/29 11:19:29;;;;;;;1999.90;999.90;;;;;;;29.77;28.57;99103.38;9981234;23;20067;-78
2022/07/29 11:23:39;;;;;;;1999.90;999.90;;;;;;;30.32;26.87;99091.28;9981920;23;20054;-79
2022/07/29 11:27:44;;;;;;;1999.90;999.90;;;;;;;30.51;25.54;99106.53;9981529;23;20106;-79
2022/07/29 11:31:51;;;;;;;1999.90;999.90;;;;;;;30.52;24.73;99105.56;9936095;23;20055;-78
2022/07/29 11:36:11;;;;;;;1999.90;999.90;;;;;;;30.63;26.07;99112.63;9933631;23;20023;-78
2022/07/29 11:40:18;;;;;;;1999.90;999.90;;;;;;;30.56;25.19;99112.34;9934847;23;20026;-79
2022/07/29 11:44:58;;;;;;;1999.90;999.90;;;;;;;30.30;24.42;99111.16;9934207;23;20020;-79
2022/07/29 11:49:09;;;;;;;1999.90;999.90;;;;;;;30.00;25.47;99109.41;9930719;23;20441;-79
2022/07/29 11:53:15;;;;;;;1999.90;999.90;;;;;;;30.40;26.25;99113.88;9957051;23;20024;-79
2022/07/29 11:57:19;;;;;;;1999.90;999.90;;;;;;;30.63;25.37;99116.16;9933739;23;20023;-79
2022/07/29 12:01:24;;;;;;;1999.90;999.90;;;;;;;30.68;24.90;99107.69;9939091;23;20033;-79
2022/07/29 12:05:35;;;;;;;1999.90;999.90;;;;;;;31.00;26.08;99111.91;9994195;23;20054;-78
2022/07/29 12:09:37;;;;;;;1999.90;999.90;;;;;;;30.95;25.11;99115.03;9979882;23;20030;-79
2022/07/29 12:13:42;;;;;;;1999.90;999.90;;;;;;;30.92;24.96;99109.97;9980138;23;20079;-78
2022/07/29 12:17:46;;;;;;;1999.90;999.90;;;;;;;30.76;25.25;99112.38;9980614;23;20023;-78
2022/07/29 12:21:50;;;;;;;1999.90;999.90;;;;;;;30.64;25.73;99106.28;9978843;23;20019;-78
2022/07/29 12:25:57;;;;;;;1999.90;999.90;;;;;;;30.52;26.62;99110.06;9980328;23;20078;-79
2022/07/29 12:30:02;;;;;;;1999.90;999.90;;;;;;;30.52;26.39;99110.94;9955931;23;20034;-79
2022/07/29 12:34:04;;;;;;;1999.90;999.90;;;;;;;30.57;26.33;99103.31;9992477;23;20047;-79
2022/07/29 12:38:06;;;;;;;1999.90;999.90;;;;;;;30.80;26.61;99097.69;10003066;23;20038;-79
2022/07/29 12:42:15;;;;;;;1999.90;999.90;;;;;;;30.82;25.67;99107.28;10006503;23;20015;-79
2022/07/29 12:46:19;;;;;;;1999.90;999.90;;;;;;;30.79;25.95;99106.72;10000870;23;20062;-79
2022/07/29 12:50:20;;;;;;;1999.90;999.90;;;;;;;30.75;26.05;99094.59;10005417;23;20023;-79
2022/07/29 12:54:26;;;;;;;1999.90;999.90;;;;;;;30.75;26.65;99108.00;10007142;23;20015;-79
2022/07/29 12:58:39;;;;;;;1999.90;999.90;;;;;;;30.65;25.58;99110.66;10030102;23;20022;-79
2022/07/29 13:02:43;;;;;;;1999.90;999.90;;;;;;;30.59;26.55;99100.47;10001997;23;20030;-79
2022/07/29 13:06:45;;;;;;;1999.90;999.90;;;;;;;30.76;26.10;99104.31;10030829;23;20030;-79
2022/07/29 13:10:51;;;;;;;1999.90;999.90;;;;;;;30.98;26.52;99104.00;10045450;23;20038;-79
2022/07/29 13:14:53;;;;;;;1999.90;999.90;;;;;;;31.02;26.62;99099.19;10005203;23;20029;-79
2022/07/29 13:19:06;;;;;;;1999.90;999.90;;;;;;;31.27;26.73;99101.31;10021145;23;20027;-78
2022/07/29 13:23:07;;;;;;;1999.90;999.90;;;;;;;31.11;26.17;99101.03;10028252;23;20029;-78
2022/07/29 13:27:09;;;;;;;1999.90;999.90;;;;;;;31.23;26.34;99099.88;10004117;23;20046;-79
2022/07/29 13:31:10;;;;;;;1999.90;999.90;;;;;;;31.34;26.26;99110.47;9999677;23;20061;-78
2022/07/29 13:35:13;;;;;;;1999.90;999.90;;;;;;;31.39;25.95;99104.66;10029217;23;20034;-78
2022/07/29 13:39:14;;;;;;;1999.90;999.90;;;;;;;31.22;25.68;99106.25;10030146;23;20023;-79
2022/07/29 13:43:16;;;;;;;1999.90;999.90;;;;;;;30.61;26.89;99099.38;10045703;23;20031;-78
2022/07/29 13:47:18;;;;;;;1999.90;999.90;;;;;;;30.62;27.10;99108.28;9999799;23;20061;-78
2022/07/29 13:51:20;;;;;;;1999.90;999.90;;;;;;;30.68;27.77;99095.13;10028854;23;20050;-78
2022/07/29 13:55:21;;;;;;;1999.90;999.90;;;;;;;30.98;27.04;99099.50;10030338;23;20023;-79
2022/07/29 13:59:23;;;;;;;1999.90;999.90;;;;;;;31.05;26.57;99089.03;10004528;23;20050;-79
2022/07/29 14:03:25;;;;;;;1999.90;999.90;;;;;;;31.20;25.81;99098.34;10004713;23;20045;-80
2022/07/29 14:07:26;;;;;;;1999.90;999.90;;;;;;;31.32;26.31;99092.81;10006539;23;20050;-80
2022/07/29 14:11:28;;;;;;;1999.90;999.90;;;;;;;31.16;25.42;99102.28;10048686;23;20046;-79
2022/07/29 14:15:29;;;;;;;1999.90;999.90;;;;;;;30.94;25.73;99087.38;10032440;23;20058;-80
2022/07/29 14:19:35;;;;;;;1999.90;999.90;;;;;;;31.01;26.21;99084.94;10007974;23;20019;-79
2022/07/29 14:23:36;;;;;;;1999.90;999.90;;;;;;;30.78;26.52;99087.09;10006523;23;20566;-79
2022/07/29 14:27:43;;;;;;;1999.90;999.90;;;;;;;30.96;27.32;99077.34;10032502;23;20026;-78
2022/07/29 14:31:45;;;;;;;1999.90;999.90;;;;;;;30.98;26.47;99070.00;10000046;23;20437;-78
2022/07/29 14:35:47;;;;;;;1999.90;999.90;;;;;;;31.18;27.04;99078.88;10045683;23;20054;-78
2022/07/29 14:39:49;;;;;;;1999.90;999.90;;;;;;;30.96;26.74;99073.81;10004408;23;20392;-78
2022/07/29 14:43:51;;;;;;;1999.90;999.90;;;;;;;30.59;27.43;99074.53;10005000;23;20764;-79
2022/07/29 14:47:53;;;;;;;1999.90;999.90;;;;;;;30.47;28.04;99072.97;10025694;23;20034;-79
2022/07/29 14:51:58;;;;;;;1999.90;999.90;;;;;;;30.68;28.30;99071.00;10004879;23;20098;-78
2022/07/29 14:56:00;;;;;;;1999.90;999.90;;;;;;;30.90;27.94;99061.00;10000777;23;20509;-79
2022/07/29 15:00:22;;;;;;;1999.90;999.90;;;;;;;31.20;27.63;99066.16;9977576;23;20023;-79
2022/07/29 15:04:24;;;;;;;1999.90;999.90;;;;;;;31.49;27.19;99074.13;10002455;23;20061;-79
2022/07/29 15:08:28;;;;;;;1999.90;999.90;;;;;;;31.54;26.34;99066.47;10028306;23;20019;-78
2022/07/29 15:12:30;;;;;;;1999.90;999.90;;;;;;;31.47;26.02;99076.09;10003324;23;20033;-78
2022/07/29 15:16:35;;;;;;;1999.90;999.90;;;;;;;31.58;25.95;99069.69;9975835;23;20339;-79
2022/07/29 15:20:36;;;;;;;1999.90;999.90;;;;;;;31.52;26.11;99064.91;10005122;23;20030;-79
2022/07/29 15:24:38;;;;;;;1999.90;999.90;;;;;;;31.52;26.00;99057.72;10030590;23;20026;-79
2022/07/29 15:28:40;;;;;;;1999.90;999.90;;;;;;;31.41;25.17;99065.94;10030741;23;20023;-78
2022/07/29 15:32:41;;;;;;;1999.90;999.90;;;;;;;31.49;25.64;99054.47;10025291;23;20041;-79
2022/07/29 15:36:42;;;;;;;1999.90;999.90;;;;;;;31.52;25.00;99057.72;10002844;23;20033;-78
2022/07/29 15:40:53;;;;;;;1999.90;999.90;;;;;;;31.66;25.18;99056.38;10003508;23;20019;-78
2022/07/29 15:44:55;;;;;;;1999.90;999.90;;;;;;;31.84;25.70;99061.84;10002886;23;20414;-79
2022/07/29 15:48:57;;;;;;;1999.90;999.90;;;;;;;31.85;25.14;99066.22;10022884;23;20050;-78
2022/07/29 15:52:59;;;;;;;1999.90;999.90;;;;;;;31.97;25.06;99058.81;10002960;23;20392;-79
2022/07/29 15:57:02;;;;;;;1999.90;999.90;;;;;;;31.70;25.23;99055.09;10044669;23;20042;-79
2022/07/29 16:01:04;;;;;;;1999.90;999.90;;;;;;;31.24;25.63;99061.38;10040476;23;20019;-79
2022/07/29 16:05:05;;;;;;;1999.90;999.90;;;;;;;30.76;27.08;99064.94;10024670;23;20102;-78
2022/07/29 16:09:10;;;;;;;1999.90;999.90;;;;;;;30.37;27.62;99070.28;10025346;23;20019;-78
2022/07/29 16:13:12;;;;;;;1999.90;999.90;;;;;;;30.25;28.34;99065.19;10005650;23;20054;-78
2022/07/29 16:17:19;;;;;;;1999.90;999.90;;;;;;;30.42;28.00;99058.31;10000917;23;20030;-78
2022/07/29 16:21:23;;;;;;;1999.90;999.90;;;;;;;30.69;27.19;99058.44;10045536;23;20034;-78
2022/07/29 16:25:25;;;;;;;1999.90;999.90;;;;;;;30.81;27.16;99062.69;10005432;23;20051;-78
2022/07/29 16:29:48;;;;;;;;;;;;;;;30.96;27.12;99057.72;10005223;23;20538;-78
2022/07/29 16:33:49;;;;;;;1999.90;999.90;;;;;;;30.86;27.37;99048.84;9998895;23;19949;-78
2022/07/29 16:37:56;;;;;;;1999.90;999.90;;;;;;;30.62;27.17;99052.81;10029770;23;20086;-77
2022/07/29 16:41:58;;;;;;;1999.90;999.90;;;;;;;30.22;27.29;99055.63;10027989;23;20019;-77
2022/07/29 16:46:03;;;;;;;1999.90;999.90;;;;;;;29.82;28.43;99066.38;9997781;23;20042;-77
2022/07/29 16:50:05;;;;;;;1999.90;999.90;;;;;;;29.51;29.11;99065.53;10027612;23;20019;-76
2022/07/29 16:54:09;;;;;;;1999.90;999.90;;;;;;;29.29;29.48;99066.53;10028593;23;20038;-77
2022/07/29 16:58:11;;;;;;;1999.90;999.90;;;;;;;29.11;29.83;99071.66;10027271;23;20338;-76
2022/07/29 17:02:12;;;;;;;1999.90;999.90;;;;;;;28.93;30.48;99067.88;10028178;23;20386;-76
2022/07/29 17:06:14;;;;;;;1999.90;999.90;;;;;;;28.72;30.00;99069.66;10002609;23;20057;-76
2022/07/29 17:10:15;;;;;;;1999.90;999.90;;;;;;;28.53;30.50;99078.34;10002174;23;20023;-76
2022/07/29 17:14:17;;;;;;;1999.90;999.90;;;;;;;28.39;30.75;99079.53;10003441;23;20054;-76
2022/07/29 17:18:23;;;;;;;1999.90;999.90;;;;;;;28.32;31.48;99088.16;10022794;23;20022;-77
2022/07/29 17:22:25;;;;;;;1999.90;999.90;;;;;;;28.24;31.96;99094.09;10003612;23;20106;-77
2022/07/29 17:26:27;;;;;;;1999.90;999.90;;;;;;;28.07;35.65;99094.63;10005179;23;20038;-78
2022/07/29 17:30:29;;;;;;;1999.90;999.90;;;;;;;27.77;39.49;99100.63;10027961;23;20019;-78
2022/07/29 17:34:30;;;;;;;1999.90;999.90;;;;;;;27.49;39.80;99096.59;10007972;23;20054;-79
2022/07/29 17:38:31;;;;;;;;;;;;;;;27.16;40.51;99098.25;10007777;23;20023;-79
2022/07/29 17:42:33;;;;;;;1999.90;999.90;;;;;;;26.94;41.95;99103.50;10006145;23;19932;-79
2022/07/29 17:46:34;;;;;;;;;;;;;;;26.71;42.31;99098.09;10002243;23;20037;-79
2022/07/29 17:50:36;;;;;;;1999.90;999.90;;;;;;;26.47;44.01;99094.63;10031671;23;19996;-79
2022/07/29 17:54:38;;;;;;;;;;;;;;;26.27;44.30;99101.38;9983737;23;20022;-79
2022/07/29 17:58:40;;;;;;;1999.90;999.90;;;;;;;26.20;44.69;99105.44;10006484;23;20341;-78
2022/07/29 18:02:41;;;;;;;1999.90;999.90;;;;;;;26.27;43.86;99104.03;10030563;23;20057;-77
2022/07/29 18:06:43;;;;;;;1999.90;999.90;;;;;;;26.37;40.71;99110.41;9984916;23;20098;-79